createdAt,value
2017-09-20T00:01:36.904Z,15.90
2017-09-20T00:04:05.199Z,11.93
2017-09-20T00:06:32.729Z,18.23
2017-09-20T00:09:01.063Z,17.03
2017-09-20T00:11:28.567Z,17.20
2017-09-20T00:13:56.840Z,15.80
2017-09-20T00:16:25.132Z,14.50
2017-09-20T00:18:52.651Z,18.30
2017-09-20T00:21:20.186Z,20.17
2017-09-20T00:23:47.696Z,14.53
2017-09-20T00:26:15.996Z,17.30
2017-09-20T00:28:43.515Z,17.40
2017-09-20T00:31:11.042Z,16.73
2017-09-20T00:33:38.566Z,17.13
2017-09-20T00:36:06.097Z,21.57
2017-09-20T00:38:34.407Z,16.80
2017-09-20T00:41:01.934Z,14.23
2017-09-20T00:43:30.407Z,17.37
2017-09-20T00:45:58.688Z,14.00
2017-09-20T00:48:26.967Z,17.73
2017-09-20T00:50:54.500Z,20.40
2017-09-20T00:53:22.796Z,21.33
2017-09-20T00:55:50.343Z,18.80
2017-09-20T00:58:18.639Z,16.00
2017-09-20T01:00:46.357Z,20.13
2017-09-20T01:03:13.871Z,28.40
2017-09-20T01:05:41.403Z,23.67
2017-09-20T01:08:08.927Z,20.93
2017-09-20T01:10:36.461Z,20.70
2017-09-20T01:13:03.976Z,18.97
2017-09-20T01:15:32.273Z,25.50
2017-09-20T01:17:59.783Z,21.37
2017-09-20T01:23:43.449Z,24.23
2017-09-20T01:26:11.740Z,26.80
2017-09-20T01:28:39.319Z,30.90
2017-09-20T01:31:06.986Z,25.60
2017-09-20T01:33:34.507Z,29.67
2017-09-20T01:36:02.802Z,26.00
2017-09-20T01:38:30.360Z,26.53
2017-09-20T01:40:57.861Z,30.83
2017-09-20T01:43:25.381Z,30.50
2017-09-20T01:45:52.907Z,27.97
2017-09-20T01:48:21.238Z,26.07
2017-09-20T01:50:48.745Z,32.27
2017-09-20T01:53:17.022Z,29.47
2017-09-20T01:55:45.335Z,29.83
2017-09-20T01:58:12.868Z,27.03
2017-09-20T02:00:40.391Z,29.90
2017-09-20T02:03:07.920Z,28.93
2017-09-20T02:05:35.449Z,32.67
2017-09-20T02:08:02.964Z,30.67
2017-09-20T02:10:31.503Z,30.17
2017-09-20T02:12:59.051Z,34.17
2017-09-20T02:15:26.571Z,35.70
2017-09-20T02:17:54.873Z,33.77
2017-09-20T02:20:22.397Z,29.47
2017-09-20T02:22:50.691Z,36.80
2017-09-20T02:25:18.977Z,36.17
2017-09-20T02:27:46.512Z,33.53
2017-09-20T02:30:14.779Z,39.43
2017-09-20T02:32:43.088Z,32.63
2017-09-20T02:35:10.625Z,31.40
2017-09-20T02:37:39.140Z,30.60
2017-09-20T02:40:06.664Z,36.43
2017-09-20T02:42:34.969Z,40.07
2017-09-20T02:45:02.524Z,35.33
2017-09-20T02:47:30.040Z,38.83
2017-09-20T02:49:58.354Z,32.30
2017-09-20T02:52:26.023Z,36.13
2017-09-20T02:54:53.585Z,37.20
2017-09-20T02:57:21.149Z,31.93
2017-09-20T02:59:48.660Z,35.20
2017-09-20T03:02:16.965Z,37.50
2017-09-20T03:04:44.487Z,39.70
2017-09-20T03:07:12.794Z,37.23
2017-09-20T03:09:40.294Z,39.23
2017-09-20T03:12:07.858Z,39.20
2017-09-20T03:14:36.163Z,32.50
2017-09-20T03:17:04.466Z,37.37
2017-09-20T03:19:31.995Z,37.17
2017-09-20T03:22:00.322Z,31.07
2017-09-20T03:24:27.843Z,41.90
2017-09-20T03:26:55.378Z,37.80
2017-09-20T03:29:23.702Z,42.57
2017-09-20T03:31:51.215Z,36.70
2017-09-20T03:34:19.659Z,38.30
2017-09-20T03:36:48.367Z,42.07
2017-09-20T03:39:16.688Z,36.10
2017-09-20T03:41:44.205Z,37.63
2017-09-20T03:44:12.495Z,38.33
2017-09-20T03:46:40.089Z,36.33
2017-09-20T03:49:07.648Z,40.80
2017-09-20T03:51:35.180Z,43.40
2017-09-20T03:54:02.695Z,38.30
2017-09-20T03:56:30.224Z,38.50
2017-09-20T03:58:57.735Z,35.67
2017-09-20T04:01:26.033Z,38.57
2017-09-20T04:03:53.549Z,38.73
2017-09-20T04:06:21.140Z,40.10
2017-09-20T04:08:48.655Z,38.30
2017-09-20T04:11:16.191Z,42.13
2017-09-20T04:13:43.728Z,37.63
2017-09-20T04:16:11.261Z,41.73
2017-09-20T04:18:38.795Z,42.07
2017-09-20T04:21:06.330Z,42.60
2017-09-20T04:23:33.854Z,37.90
2017-09-20T04:26:01.387Z,42.23
2017-09-20T04:28:29.672Z,36.40
2017-09-20T04:30:57.227Z,38.73
2017-09-20T04:33:24.752Z,36.77
2017-09-20T04:35:52.273Z,38.00
2017-09-20T04:38:19.795Z,36.00
2017-09-20T04:40:47.347Z,53.53
2017-09-20T04:43:15.669Z,37.63
2017-09-20T04:45:43.197Z,40.37
2017-09-20T04:48:10.728Z,36.10
2017-09-20T04:50:39.004Z,39.20
2017-09-20T04:53:07.303Z,40.37
2017-09-20T04:55:34.836Z,38.50
2017-09-20T04:58:03.145Z,42.23
2017-09-20T05:00:30.703Z,37.13
2017-09-20T05:02:58.224Z,44.80
2017-09-20T05:05:26.518Z,39.93
2017-09-20T05:07:54.034Z,38.10
2017-09-20T05:10:21.579Z,40.50
2017-09-20T05:12:49.095Z,39.93
2017-09-20T05:15:16.655Z,37.73
2017-09-20T05:17:44.181Z,41.90
2017-09-20T05:20:12.481Z,40.40
2017-09-20T05:22:40.018Z,40.97
2017-09-20T05:25:08.297Z,37.93
2017-09-20T05:27:36.620Z,42.10
2017-09-20T05:30:04.133Z,35.70
2017-09-20T05:32:32.451Z,41.17
2017-09-20T05:34:59.991Z,45.93
2017-09-20T05:37:27.527Z,39.50
2017-09-20T05:39:55.837Z,38.00
2017-09-20T05:42:23.356Z,38.60
2017-09-20T05:44:50.894Z,37.33
2017-09-20T05:47:18.414Z,40.43
2017-09-20T05:49:45.985Z,49.53
2017-09-20T05:52:13.530Z,37.40
2017-09-20T05:54:41.057Z,41.97
2017-09-20T05:57:08.584Z,38.90
2017-09-20T05:59:36.191Z,38.80
2017-09-20T06:02:03.727Z,43.10
2017-09-20T06:04:31.988Z,44.40
2017-09-20T06:07:00.507Z,41.63
2017-09-20T06:09:28.061Z,38.90
2017-09-20T06:11:55.573Z,40.83
2017-09-20T06:14:23.873Z,40.43
2017-09-20T06:16:51.388Z,34.07
2017-09-20T06:19:18.931Z,39.73
2017-09-20T06:21:46.448Z,44.23
2017-09-20T06:24:14.121Z,62.73
2017-09-20T06:26:41.651Z,44.60
2017-09-20T06:29:09.935Z,48.20
2017-09-20T06:31:38.248Z,41.20
2017-09-20T06:34:05.794Z,39.60
2017-09-20T06:36:33.323Z,35.23
2017-09-20T06:39:01.628Z,47.10
2017-09-20T06:41:29.175Z,42.20
2017-09-20T06:43:56.687Z,39.53
2017-09-20T06:46:24.227Z,44.30
2017-09-20T06:48:51.791Z,44.03
2017-09-20T06:51:19.332Z,39.27
2017-09-20T06:53:46.845Z,41.67
2017-09-20T06:56:15.150Z,38.97
2017-09-20T06:58:42.683Z,37.67
2017-09-20T07:01:10.194Z,37.10
2017-09-20T07:03:37.719Z,36.73
2017-09-20T07:06:05.220Z,42.47
2017-09-20T07:08:32.768Z,41.00
2017-09-20T07:11:00.318Z,40.80
2017-09-20T07:13:27.838Z,36.90
2017-09-20T07:15:55.368Z,59.17
2017-09-20T07:18:23.637Z,44.83
2017-09-20T07:20:51.940Z,37.53
2017-09-20T07:23:19.465Z,37.97
2017-09-20T07:25:47.751Z,51.33
2017-09-20T07:28:16.024Z,44.80
2017-09-20T07:30:44.544Z,40.03
2017-09-20T07:33:12.076Z,38.63
2017-09-20T07:35:39.606Z,36.90
2017-09-20T07:38:07.127Z,37.60
2017-09-20T07:40:34.664Z,40.20
2017-09-20T07:43:02.196Z,37.10
2017-09-20T07:45:30.488Z,42.10
2017-09-20T07:47:58.036Z,44.13
2017-09-20T07:50:26.314Z,45.20
2017-09-20T07:52:53.884Z,42.53
2017-09-20T07:55:21.397Z,41.97
2017-09-20T07:57:48.959Z,48.47
2017-09-20T08:00:17.252Z,53.27
2017-09-20T08:02:45.552Z,116.73
2017-09-20T08:05:13.132Z,46.30
2017-09-20T08:07:40.750Z,44.57
2017-09-20T08:10:09.024Z,46.47
2017-09-20T08:12:37.299Z,45.10
2017-09-20T08:15:05.604Z,41.50
2017-09-20T08:17:33.111Z,40.53
2017-09-20T08:20:00.643Z,35.57
2017-09-20T08:22:28.155Z,34.70
2017-09-20T08:24:55.724Z,30.67
2017-09-20T08:27:23.250Z,23.57
2017-09-20T08:29:51.532Z,21.90
2017-09-20T08:32:19.847Z,24.60
2017-09-20T08:34:47.463Z,21.57
2017-09-20T08:37:15.753Z,15.40
2017-09-20T08:39:43.309Z,23.60
2017-09-20T08:42:10.855Z,22.20
2017-09-20T08:44:39.154Z,21.67
2017-09-20T08:47:06.823Z,21.50
2017-09-20T08:49:34.416Z,13.23
2017-09-20T08:52:01.977Z,14.83
2017-09-20T08:54:29.526Z,12.47
2017-09-20T08:56:57.054Z,11.10
2017-09-20T08:59:24.611Z,22.83
2017-09-20T09:01:52.161Z,33.90
2017-09-20T09:04:19.758Z,67.90
2017-09-20T09:06:47.292Z,37.43
2017-09-20T09:09:14.850Z,14.33
2017-09-20T09:11:42.376Z,10.80
2017-09-20T09:14:09.902Z,14.70
2017-09-20T09:16:37.443Z,11.13
2017-09-20T09:19:04.958Z,12.93
2017-09-20T09:21:32.475Z,16.27
2017-09-20T09:23:59.991Z,14.23
2017-09-20T09:26:27.567Z,15.63
2017-09-20T09:28:55.070Z,20.90
2017-09-20T09:31:23.427Z,25.23
2017-09-20T09:33:50.997Z,28.07
2017-09-20T09:36:19.285Z,31.37
2017-09-20T09:38:47.589Z,39.43
2017-09-20T09:41:15.108Z,39.27
2017-09-20T09:43:43.423Z,42.57
2017-09-20T09:46:10.942Z,45.03
2017-09-20T09:48:39.272Z,51.63
2017-09-20T09:51:06.817Z,53.83
2017-09-20T09:53:34.361Z,51.30
2017-09-20T09:56:01.963Z,56.83
2017-09-20T09:58:29.512Z,52.37
2017-09-20T10:00:57.049Z,49.90
2017-09-20T10:03:24.572Z,60.00
2017-09-20T10:05:53.005Z,50.37
2017-09-20T10:08:20.515Z,49.20
2017-09-20T10:10:48.825Z,42.03
2017-09-20T10:13:16.339Z,43.60
2017-09-20T10:15:44.633Z,40.13
2017-09-20T10:18:12.311Z,46.93
2017-09-20T10:20:39.840Z,44.20
2017-09-20T10:23:08.126Z,43.97
2017-09-20T10:25:35.652Z,45.67
2017-09-20T10:28:03.944Z,59.00
2017-09-20T10:30:32.261Z,46.90
2017-09-20T10:32:59.780Z,40.77
2017-09-20T10:35:28.096Z,57.33
2017-09-20T10:37:55.611Z,42.10
2017-09-20T10:40:23.903Z,43.73
2017-09-20T10:42:51.441Z,46.73
2017-09-20T10:45:19.716Z,44.03
2017-09-20T10:47:48.195Z,39.97
2017-09-20T10:50:16.475Z,46.20
2017-09-20T10:52:44.750Z,50.63
2017-09-20T10:55:12.308Z,43.70
2017-09-20T10:57:39.866Z,42.37
2017-09-20T11:00:07.407Z,39.13
2017-09-20T11:02:35.711Z,46.47
2017-09-20T11:05:03.242Z,42.90
2017-09-20T11:07:31.548Z,45.73
2017-09-20T11:09:59.106Z,42.57
2017-09-20T11:12:26.635Z,41.53
2017-09-20T11:14:54.955Z,39.80
2017-09-20T11:17:22.498Z,42.40
2017-09-20T11:19:50.033Z,36.73
2017-09-20T11:22:18.330Z,37.33
2017-09-20T11:24:45.870Z,39.30
2017-09-20T11:27:14.247Z,42.63
2017-09-20T11:29:41.811Z,36.47
2017-09-20T11:32:09.362Z,43.50
2017-09-20T11:34:37.640Z,42.07
2017-09-20T11:37:05.164Z,39.57
2017-09-20T11:39:32.699Z,37.00
2017-09-20T11:42:00.245Z,29.10
2017-09-20T11:44:27.761Z,30.33
2017-09-20T11:46:56.045Z,32.43
2017-09-20T11:49:23.598Z,31.53
2017-09-20T11:51:51.884Z,34.47
2017-09-20T11:54:19.411Z,28.63
2017-09-20T11:56:47.707Z,36.73
2017-09-20T11:59:15.999Z,39.00
2017-09-20T12:01:43.666Z,38.83
2017-09-20T12:04:11.343Z,33.93
2017-09-20T12:06:38.851Z,30.70
2017-09-20T12:09:07.142Z,36.10
2017-09-20T12:11:34.679Z,33.03
2017-09-20T12:14:02.955Z,29.83
2017-09-20T12:16:31.264Z,32.67
2017-09-20T12:18:58.779Z,27.63
2017-09-20T12:21:26.327Z,28.30
2017-09-20T12:23:53.856Z,28.47
2017-09-20T12:26:21.396Z,28.60
2017-09-20T12:28:48.920Z,31.07
2017-09-20T12:31:17.231Z,27.93
2017-09-20T12:33:44.742Z,22.17
2017-09-20T12:36:13.091Z,25.93
2017-09-20T12:38:40.595Z,25.20
2017-09-20T12:41:08.882Z,23.83
2017-09-20T12:43:36.415Z,26.77
2017-09-20T12:46:04.698Z,24.10
2017-09-20T12:48:33.007Z,24.03
2017-09-20T12:51:00.535Z,25.50
2017-09-20T12:53:28.838Z,26.20
2017-09-20T12:55:56.358Z,29.37
2017-09-20T12:58:24.640Z,29.50
2017-09-20T13:00:52.948Z,29.47
2017-09-20T13:03:20.473Z,52.87
2017-09-20T13:05:48.783Z,25.27
2017-09-20T13:08:16.345Z,26.53
2017-09-20T13:10:43.890Z,22.50
2017-09-20T13:13:11.418Z,22.33
2017-09-20T13:15:39.745Z,23.17
2017-09-20T13:18:07.278Z,20.07
2017-09-20T13:20:34.783Z,18.97
2017-09-20T13:23:03.831Z,18.50
2017-09-20T13:25:31.352Z,16.17
2017-09-20T13:27:59.675Z,18.60
2017-09-20T13:30:27.230Z,21.97
2017-09-20T13:32:54.755Z,17.87
2017-09-20T13:35:23.035Z,18.63
2017-09-20T13:37:50.561Z,19.37
2017-09-20T13:40:18.068Z,15.50
2017-09-20T13:42:45.602Z,17.60
2017-09-20T13:45:13.876Z,19.57
2017-09-20T13:47:42.230Z,20.37
2017-09-20T13:50:09.740Z,20.90
2017-09-20T13:52:37.278Z,26.97
2017-09-20T13:55:04.825Z,26.50
2017-09-20T13:57:33.110Z,26.10
2017-09-20T14:00:00.666Z,20.90
2017-09-20T14:02:28.200Z,22.97
2017-09-20T14:04:56.511Z,22.40
2017-09-20T14:07:24.036Z,20.90
2017-09-20T14:09:52.346Z,20.07
2017-09-20T14:12:20.483Z,17.10
2017-09-20T14:14:48.764Z,19.63
2017-09-20T14:17:17.060Z,13.70
2017-09-20T14:19:44.578Z,29.50
2017-09-20T14:22:13.616Z,14.20
2017-09-20T14:24:41.121Z,19.73
2017-09-20T14:27:08.650Z,18.67
2017-09-20T14:29:36.170Z,11.30
2017-09-20T14:32:03.696Z,23.00
2017-09-20T14:34:31.235Z,16.87
2017-09-20T14:36:58.775Z,11.23
2017-09-20T14:39:26.301Z,13.63
2017-09-20T14:41:53.819Z,18.40
2017-09-20T14:44:21.321Z,10.13
2017-09-20T14:46:48.871Z,8.70
2017-09-20T14:49:16.391Z,10.30
2017-09-20T14:51:43.911Z,11.67
2017-09-20T14:54:11.436Z,8.50
2017-09-20T14:56:39.716Z,12.23
2017-09-20T14:59:07.243Z,10.10
2017-09-20T15:01:34.743Z,8.87
2017-09-20T15:04:02.412Z,16.73
2017-09-20T15:06:29.940Z,10.17
2017-09-20T15:08:58.236Z,7.53
2017-09-20T15:11:25.746Z,7.83
2017-09-20T15:13:53.278Z,9.93
2017-09-20T15:16:20.779Z,10.87
2017-09-20T15:18:49.065Z,16.27
2017-09-20T15:21:16.596Z,12.63
2017-09-20T15:23:44.132Z,35.67
2017-09-20T15:26:11.665Z,60.40
2017-09-20T15:28:39.405Z,17.90
2017-09-20T15:31:07.751Z,22.73
2017-09-20T15:33:36.104Z,21.23
2017-09-20T15:36:03.714Z,17.67
2017-09-20T15:38:31.256Z,20.30
2017-09-20T15:40:59.597Z,23.40
2017-09-20T15:43:27.126Z,22.10
2017-09-20T15:45:54.680Z,24.17
2017-09-20T15:48:22.203Z,22.90
2017-09-20T15:50:49.838Z,22.27
2017-09-20T15:53:17.421Z,19.47
2017-09-20T15:55:45.749Z,22.90
2017-09-20T15:58:13.407Z,36.13
2017-09-20T16:00:41.033Z,20.37
2017-09-20T16:03:09.344Z,20.83
2017-09-20T16:05:36.868Z,22.83
2017-09-20T16:08:04.468Z,21.63
2017-09-20T16:10:31.974Z,17.90
2017-09-20T16:13:00.299Z,27.23
2017-09-20T16:15:27.814Z,19.03
2017-09-20T16:17:56.092Z,24.13
2017-09-20T16:20:24.393Z,16.37
2017-09-20T16:22:51.899Z,17.70
2017-09-20T16:25:19.448Z,16.73
2017-09-20T16:27:50.811Z,18.90
2017-09-20T16:30:19.145Z,18.37
2017-09-20T16:32:46.651Z,18.90
2017-09-20T16:35:14.958Z,15.30
2017-09-20T16:37:42.542Z,15.50
2017-09-20T16:40:10.178Z,20.07
2017-09-20T16:42:37.757Z,25.43
2017-09-20T16:45:06.352Z,51.53
2017-09-20T16:47:33.851Z,28.67
2017-09-20T16:50:02.150Z,29.93
2017-09-20T16:52:29.698Z,34.17
2017-09-20T16:54:57.247Z,33.13
2017-09-20T16:57:25.551Z,25.40
2017-09-20T16:59:53.085Z,19.60
2017-09-20T17:02:20.611Z,22.00
2017-09-20T17:04:48.140Z,18.83
2017-09-20T17:07:16.269Z,20.57
2017-09-20T17:09:43.785Z,15.50
2017-09-20T17:12:11.295Z,11.63
2017-09-20T17:14:38.832Z,15.20
2017-09-20T17:17:07.144Z,17.57
2017-09-20T17:19:34.695Z,19.87
2017-09-20T17:22:02.227Z,13.97
2017-09-20T17:24:30.027Z,16.73
2017-09-20T17:26:57.624Z,11.17
2017-09-20T17:29:25.141Z,10.37
2017-09-20T17:31:52.662Z,12.27
2017-09-20T17:34:20.941Z,23.83
2017-09-20T17:36:49.227Z,14.33
2017-09-20T17:39:16.759Z,37.37
2017-09-20T17:41:45.060Z,37.75
2017-09-20T17:44:12.591Z,20.67
2017-09-20T17:46:40.927Z,27.00
2017-09-20T17:49:08.440Z,14.50
2017-09-20T17:51:35.995Z,13.93
2017-09-20T17:54:03.608Z,13.93
2017-09-20T17:56:31.124Z,13.30
2017-09-20T17:58:58.703Z,19.90
2017-09-20T18:01:26.238Z,14.60
2017-09-20T18:03:53.783Z,14.07
2017-09-20T18:06:22.068Z,15.80
2017-09-20T18:08:49.626Z,17.40
2017-09-20T18:11:17.939Z,16.60
2017-09-20T18:13:45.558Z,15.10
2017-09-20T18:16:13.143Z,20.27
2017-09-20T18:18:40.708Z,15.40
2017-09-20T18:21:08.260Z,14.50
2017-09-20T18:23:35.761Z,14.70
2017-09-20T18:26:03.291Z,13.93
2017-09-20T18:28:30.794Z,15.43
2017-09-20T18:30:59.305Z,21.63
2017-09-20T18:33:26.822Z,23.57
2017-09-20T18:35:55.123Z,25.03
2017-09-20T18:38:22.661Z,46.33
2017-09-20T18:40:50.955Z,41.80
2017-09-20T18:43:18.503Z,24.40
2017-09-20T18:45:48.145Z,20.37
2017-09-20T18:48:15.669Z,23.43
2017-09-20T18:50:43.195Z,15.77
2017-09-20T18:53:10.764Z,19.93
2017-09-20T18:55:38.282Z,21.90
2017-09-20T18:58:05.799Z,20.10
2017-09-20T19:00:33.327Z,25.47
2017-09-20T19:03:00.849Z,37.83
2017-09-20T19:05:28.380Z,19.87
2017-09-20T19:07:55.878Z,30.97
2017-09-20T19:10:23.430Z,26.73
2017-09-20T19:12:50.967Z,18.33
2017-09-20T19:15:18.502Z,23.10
2017-09-20T19:17:46.083Z,28.57
2017-09-20T19:20:13.641Z,18.50
2017-09-20T19:22:41.177Z,19.10
2017-09-20T19:25:08.731Z,18.37
2017-09-20T19:27:37.031Z,20.30
2017-09-20T19:30:04.544Z,22.37
2017-09-20T19:32:32.148Z,24.03
2017-09-20T19:34:59.752Z,16.97
2017-09-20T19:37:27.430Z,17.27
2017-09-20T19:39:55.762Z,19.20
2017-09-20T19:42:23.347Z,18.90
2017-09-20T19:44:50.872Z,19.57
2017-09-20T19:47:18.396Z,23.07
2017-09-20T19:49:46.746Z,20.70
2017-09-20T19:52:14.269Z,17.20
2017-09-20T19:54:41.793Z,16.40
2017-09-20T19:57:09.308Z,19.40
2017-09-20T19:59:36.864Z,15.37
2017-09-20T20:02:04.412Z,17.17
2017-09-20T20:04:31.946Z,15.13
2017-09-20T20:06:59.467Z,18.70
2017-09-20T20:09:27.876Z,27.90
2017-09-20T20:11:55.400Z,17.70
2017-09-20T20:14:22.924Z,23.40
2017-09-20T20:16:50.459Z,18.87
2017-09-20T20:19:17.971Z,14.03
2017-09-20T20:21:46.281Z,18.57
2017-09-20T20:24:13.821Z,21.10
2017-09-20T20:26:41.391Z,14.37
2017-09-20T20:29:08.923Z,15.60
2017-09-20T20:31:36.439Z,14.17
2017-09-20T20:34:03.966Z,13.03
2017-09-20T20:36:31.485Z,16.70
2017-09-20T20:38:59.784Z,13.07
2017-09-20T20:41:27.326Z,43.27
2017-09-20T20:43:55.624Z,25.70
2017-09-20T20:46:23.131Z,25.00
2017-09-20T20:48:50.679Z,12.77
2017-09-20T20:51:18.214Z,14.50
2017-09-20T20:53:45.739Z,15.80
2017-09-20T20:56:13.273Z,31.57
2017-09-20T20:58:41.596Z,20.10
2017-09-20T21:01:09.116Z,17.83
2017-09-20T21:03:37.423Z,15.17
2017-09-20T21:06:04.935Z,15.27
2017-09-20T21:08:32.492Z,17.73
2017-09-20T21:11:00.777Z,17.87
2017-09-20T21:13:29.104Z,15.10
2017-09-20T21:15:56.639Z,14.93
2017-09-20T21:18:24.234Z,17.33
2017-09-20T21:20:51.779Z,26.80
2017-09-20T21:23:19.302Z,17.13
2017-09-20T21:25:46.930Z,19.10
2017-09-20T21:28:15.232Z,16.23
2017-09-20T21:30:43.742Z,15.27
2017-09-20T21:33:11.355Z,17.17
2017-09-20T21:35:39.644Z,13.47
2017-09-20T21:38:07.937Z,11.40
2017-09-20T21:40:35.460Z,12.90
2017-09-20T21:43:03.761Z,16.33
2017-09-20T21:45:31.277Z,17.40
2017-09-20T21:47:58.819Z,20.33
2017-09-20T21:50:26.323Z,18.77
2017-09-20T21:52:54.655Z,16.20
2017-09-20T21:55:22.184Z,16.53
2017-09-20T21:57:49.767Z,16.63
2017-09-20T22:00:17.314Z,19.33
2017-09-20T22:02:44.866Z,17.07
2017-09-20T22:05:12.390Z,14.57
2017-09-20T22:07:39.937Z,12.33
2017-09-20T22:10:08.303Z,15.60
2017-09-20T22:12:35.914Z,13.23
2017-09-20T22:15:15.361Z,12.23
2017-09-20T22:17:54.848Z,16.63
2017-09-20T22:20:34.999Z,15.00
2017-09-20T22:23:15.292Z,15.80
2017-09-20T22:25:54.519Z,13.80
2017-09-20T22:28:22.046Z,16.40
2017-09-20T22:30:50.329Z,17.50
2017-09-20T22:33:18.642Z,19.37
2017-09-20T22:35:46.202Z,17.03
2017-09-20T22:38:13.715Z,17.83
2017-09-20T22:40:42.011Z,17.30
2017-09-20T22:43:09.532Z,19.53
2017-09-20T22:45:37.859Z,12.57
2017-09-20T22:48:05.386Z,15.30
2017-09-20T22:50:33.674Z,16.27
2017-09-20T22:53:01.195Z,23.80
2017-09-20T22:55:28.739Z,16.60
2017-09-20T22:57:56.268Z,12.70
2017-09-20T23:00:23.793Z,15.80
2017-09-20T23:02:52.088Z,15.43
2017-09-20T23:05:19.611Z,14.43
2017-09-20T23:07:48.033Z,13.73
2017-09-20T23:10:15.535Z,12.20
2017-09-20T23:12:43.053Z,15.70
2017-09-20T23:15:10.588Z,12.60
2017-09-20T23:17:38.182Z,12.60
2017-09-20T23:20:05.745Z,13.10
2017-09-20T23:22:33.250Z,11.20
2017-09-20T23:25:01.536Z,15.83
2017-09-20T23:27:29.075Z,13.87
2017-09-20T23:29:57.347Z,17.50
2017-09-20T23:32:25.654Z,13.47
2017-09-20T23:34:53.156Z,12.33
2017-09-20T23:37:20.700Z,21.13
2017-09-20T23:39:48.195Z,13.73
2017-09-20T23:42:16.503Z,13.90
2017-09-20T23:44:44.010Z,14.33
2017-09-20T23:47:12.329Z,12.53
2017-09-20T23:49:39.860Z,14.97
2017-09-20T23:52:08.148Z,15.33
2017-09-20T23:54:35.662Z,12.40
2017-09-20T23:57:03.223Z,11.57
2017-09-20T23:59:30.759Z,12.40
